createdAt,value
2023-11-07T00:01:55.250Z,20.01
2023-11-07T00:04:25.918Z,19.98
2023-11-07T00:06:56.895Z,20.00
2023-11-07T00:09:29.389Z,20.00
2023-11-07T00:12:01.829Z,19.95
2023-11-07T00:14:34.239Z,19.94
2023-11-07T00:17:06.381Z,19.95
2023-11-07T00:19:39.145Z,19.95
2023-11-07T00:22:10.283Z,19.97
2023-11-07T00:24:44.278Z,19.98
2023-11-07T00:27:18.191Z,19.98
2023-11-07T00:29:50.307Z,20.00
2023-11-07T00:32:20.580Z,19.98
2023-11-07T00:34:54.016Z,19.94
2023-11-07T00:37:26.004Z,19.98
2023-11-07T00:39:58.609Z,20.00
2023-11-07T00:42:34.889Z,20.04
2023-11-07T00:45:11.852Z,20.03
2023-11-07T00:47:42.932Z,20.04
2023-11-07T00:50:14.159Z,20.00
2023-11-07T00:52:44.945Z,19.98
2023-11-07T00:55:16.559Z,20.03
2023-11-07T00:57:48.760Z,20.01
2023-11-07T01:00:24.605Z,20.04
2023-11-07T01:02:58.523Z,20.03
2023-11-07T01:05:34.344Z,20.03
2023-11-07T01:08:07.980Z,20.03
2023-11-07T01:10:42.629Z,20.04
2023-11-07T01:13:13.529Z,20.03
2023-11-07T01:15:51.836Z,20.04
2023-11-07T01:18:23.216Z,20.05
2023-11-07T01:20:55.327Z,20.07
2023-11-07T01:23:25.931Z,20.07
2023-11-07T01:25:58.472Z,20.08
2023-11-07T01:28:29.836Z,20.07
2023-11-07T01:31:05.034Z,20.07
2023-11-07T01:33:40.740Z,20.03
2023-11-07T01:36:13.123Z,20.03
2023-11-07T01:38:43.730Z,20.03
2023-11-07T01:41:14.771Z,20.03
2023-11-07T01:43:48.053Z,20.01
2023-11-07T01:46:19.143Z,19.98
2023-11-07T01:48:50.616Z,19.98
2023-11-07T01:51:22.788Z,20.00
2023-11-07T01:53:55.700Z,20.01
2023-11-07T01:56:30.799Z,19.98
2023-11-07T01:59:04.152Z,20.00
2023-11-07T02:01:41.331Z,20.00
2023-11-07T02:04:13.103Z,20.03
2023-11-07T02:06:49.102Z,20.03
2023-11-07T02:09:23.536Z,20.05
2023-11-07T02:11:54.419Z,20.00
2023-11-07T02:14:32.119Z,20.03
2023-11-07T02:17:03.645Z,20.03
2023-11-07T02:19:36.982Z,20.01
2023-11-07T02:22:14.959Z,20.01
2023-11-07T02:24:46.204Z,20.00
2023-11-07T02:27:21.258Z,20.01
2023-11-07T02:29:52.773Z,20.01
2023-11-07T02:32:24.459Z,20.04
2023-11-07T02:34:55.006Z,20.00
2023-11-07T02:37:26.056Z,20.03
2023-11-07T02:39:57.939Z,20.04
2023-11-07T02:42:35.764Z,20.01
2023-11-07T02:45:07.051Z,20.03
2023-11-07T02:47:42.289Z,20.03
2023-11-07T02:50:15.769Z,20.03
2023-11-07T02:52:47.831Z,20.08
2023-11-07T02:55:17.754Z,20.03
2023-11-07T02:57:48.653Z,20.01
2023-11-07T03:00:19.391Z,20.04
2023-11-07T03:02:51.971Z,20.00
2023-11-07T03:05:21.984Z,20.00
2023-11-07T03:07:52.188Z,20.03
2023-11-07T03:10:23.318Z,20.04
2023-11-07T03:12:53.978Z,20.01
2023-11-07T03:15:24.276Z,19.98
2023-11-07T03:17:54.563Z,19.95
2023-11-07T03:20:24.543Z,19.97
2023-11-07T03:22:55.320Z,19.95
2023-11-07T03:25:26.019Z,19.98
2023-11-07T03:27:56.906Z,20.01
2023-11-07T03:30:28.525Z,20.01
2023-11-07T03:32:59.574Z,19.98
2023-11-07T03:35:33.279Z,19.98
2023-11-07T03:38:04.149Z,19.98
2023-11-07T03:40:34.766Z,19.94
2023-11-07T03:43:05.622Z,20.01
2023-11-07T03:45:36.333Z,19.98
2023-11-07T03:48:07.500Z,20.01
2023-11-07T03:50:38.261Z,19.98
2023-11-07T03:53:08.667Z,19.98
2023-11-07T03:55:39.830Z,20.03
2023-11-07T03:58:11.143Z,20.01
2023-11-07T04:00:44.649Z,20.01
2023-11-07T04:03:14.985Z,20.03
2023-11-07T04:05:45.348Z,20.03
2023-11-07T04:08:15.551Z,20.05
2023-11-07T04:10:47.171Z,20.00
2023-11-07T04:13:17.849Z,19.95
2023-11-07T04:15:48.214Z,20.00
2023-11-07T04:18:18.394Z,20.03
2023-11-07T04:20:49.863Z,20.01
2023-11-07T04:23:20.760Z,19.95
2023-11-07T04:25:52.833Z,19.94
2023-11-07T04:28:23.584Z,19.91
2023-11-07T04:30:56.032Z,19.93
2023-11-07T04:33:27.356Z,19.93
2023-11-07T04:35:58.252Z,19.91
2023-11-07T04:38:28.866Z,19.90
2023-11-07T04:40:59.444Z,19.88
2023-11-07T04:43:32.345Z,19.84
2023-11-07T04:46:03.051Z,19.78
2023-11-07T04:48:37.462Z,19.75
2023-11-07T04:51:08.490Z,19.71
2023-11-07T04:53:40.802Z,19.70
2023-11-07T04:56:12.081Z,19.66
2023-11-07T04:58:56.690Z,19.69
2023-11-07T05:01:30.140Z,19.66
2023-11-07T05:04:00.998Z,19.67
2023-11-07T05:06:31.685Z,19.66
2023-11-07T05:09:02.764Z,19.66
2023-11-07T05:11:33.612Z,19.64
2023-11-07T05:14:03.751Z,19.62
2023-11-07T05:16:34.048Z,19.62
2023-11-07T05:19:04.480Z,19.63
2023-11-07T05:21:34.926Z,19.63
2023-11-07T05:24:09.440Z,19.60
2023-11-07T05:26:41.101Z,19.54
2023-11-07T05:29:11.483Z,19.53
2023-11-07T05:31:42.188Z,19.53
2023-11-07T05:34:12.382Z,19.50
2023-11-07T05:36:42.644Z,19.43
2023-11-07T05:39:12.560Z,19.37
2023-11-07T05:41:42.837Z,19.33
2023-11-07T05:44:14.597Z,19.34
2023-11-07T05:46:45.456Z,19.37
2023-11-07T05:49:16.026Z,19.33
2023-11-07T05:51:46.258Z,19.36
2023-11-07T05:54:17.813Z,19.32
2023-11-07T05:56:48.788Z,19.29
2023-11-07T05:59:19.612Z,19.29
2023-11-07T06:01:49.849Z,19.22
2023-11-07T06:04:38.647Z,19.18
2023-11-07T06:07:09.824Z,19.08
2023-11-07T06:09:41.358Z,19.05
2023-11-07T06:12:12.866Z,19.03
2023-11-07T06:14:44.399Z,19.05
2023-11-07T06:17:16.692Z,19.03
2023-11-07T06:19:49.741Z,19.05
2023-11-07T06:22:21.108Z,18.98
2023-11-07T06:24:51.989Z,19.00
2023-11-07T06:27:23.306Z,19.00
2023-11-07T06:29:53.625Z,19.02
2023-11-07T06:32:23.828Z,19.00
2023-11-07T06:34:54.540Z,19.05
2023-11-07T06:37:26.713Z,19.02
2023-11-07T06:39:57.517Z,19.06
2023-11-07T06:42:28.351Z,19.13
2023-11-07T06:44:58.974Z,19.08
2023-11-07T06:47:29.026Z,19.12
2023-11-07T06:49:59.195Z,19.08
2023-11-07T06:52:29.372Z,19.13
2023-11-07T06:54:59.610Z,19.13
2023-11-07T06:57:30.034Z,19.13
2023-11-07T07:00:00.316Z,19.15
2023-11-07T07:02:30.520Z,19.12
2023-11-07T07:05:01.721Z,19.10
2023-11-07T07:07:32.712Z,19.12
2023-11-07T07:10:04.819Z,19.13
2023-11-07T07:12:34.987Z,19.12
2023-11-07T07:15:08.651Z,19.15
2023-11-07T07:17:40.224Z,19.10
2023-11-07T07:20:14.600Z,19.08
2023-11-07T07:22:46.070Z,19.06
2023-11-07T07:25:23.593Z,19.03
2023-11-07T07:27:56.581Z,19.05
2023-11-07T07:30:30.177Z,19.02
2023-11-07T07:33:01.138Z,18.98
2023-11-07T07:35:35.857Z,18.95
2023-11-07T07:38:06.858Z,18.94
2023-11-07T07:40:37.520Z,18.89
2023-11-07T07:43:14.294Z,18.88
2023-11-07T07:45:45.233Z,18.87
2023-11-07T07:48:15.513Z,18.84
2023-11-07T07:50:49.351Z,18.84
2023-11-07T07:53:24.879Z,18.84
2023-11-07T07:55:58.436Z,18.75
2023-11-07T07:58:29.062Z,18.76
2023-11-07T08:00:59.442Z,18.75
2023-11-07T08:03:29.661Z,18.78
2023-11-07T08:06:00.409Z,18.76
2023-11-07T08:08:30.622Z,18.73
2023-11-07T08:11:00.820Z,18.71
2023-11-07T08:13:31.836Z,18.68
2023-11-07T08:16:10.184Z,18.61
2023-11-07T08:18:43.125Z,18.57
2023-11-07T08:21:13.426Z,18.57
2023-11-07T08:23:43.907Z,18.58
2023-11-07T08:26:14.581Z,18.58
2023-11-07T08:28:46.403Z,18.58
2023-11-07T08:31:16.797Z,18.61
2023-11-07T08:33:51.236Z,18.62
2023-11-07T08:36:22.536Z,18.65
2023-11-07T08:38:52.904Z,18.69
2023-11-07T08:41:26.968Z,18.72
2023-11-07T08:43:57.581Z,18.76
2023-11-07T08:46:28.837Z,18.81
2023-11-07T08:48:59.450Z,18.88
2023-11-07T08:51:31.396Z,18.96
2023-11-07T08:54:02.084Z,19.00
2023-11-07T08:56:32.003Z,19.05
2023-11-07T08:59:02.185Z,19.00
2023-11-07T09:01:32.998Z,19.00
2023-11-07T09:04:06.703Z,19.05
2023-11-07T09:06:41.094Z,19.06
2023-11-07T09:09:17.289Z,19.12
2023-11-07T09:11:50.049Z,19.24
2023-11-07T09:14:21.528Z,19.29
2023-11-07T09:16:52.837Z,19.32
2023-11-07T09:19:23.133Z,19.37
2023-11-07T09:21:54.065Z,19.47
2023-11-07T09:27:13.004Z,19.60
2023-11-07T09:29:44.361Z,19.64
2023-11-07T09:32:15.427Z,19.70
2023-11-07T09:34:46.090Z,19.77
2023-11-07T09:37:17.877Z,19.81
2023-11-07T09:39:48.808Z,19.91
2023-11-07T09:42:19.856Z,20.04
2023-11-07T09:44:53.555Z,20.15
2023-11-07T09:47:25.881Z,20.18
2023-11-07T09:49:59.183Z,20.21
2023-11-07T09:52:33.007Z,21.37
2023-11-07T09:55:11.976Z,23.86
2023-11-07T09:58:12.466Z,24.50
2023-11-07T10:00:47.834Z,24.57
2023-11-07T10:03:18.359Z,24.44
2023-11-07T10:05:53.590Z,24.08
2023-11-07T10:08:28.153Z,23.71
2023-11-07T10:11:18.342Z,23.35
2023-11-07T10:14:07.866Z,23.25
2023-11-07T10:16:44.200Z,23.04
2023-11-07T10:19:21.843Z,22.74
2023-11-07T10:21:55.032Z,22.89
2023-11-07T10:24:25.327Z,23.10
2023-11-07T10:27:04.554Z,23.08
2023-11-07T10:29:40.837Z,23.23
2023-11-07T10:32:15.018Z,23.33
2023-11-07T10:34:45.578Z,23.35
2023-11-07T10:37:21.839Z,23.35
2023-11-07T10:40:00.923Z,23.38
2023-11-07T10:42:37.836Z,23.47
2023-11-07T10:45:12.718Z,23.45
2023-11-07T10:47:45.556Z,23.65
2023-11-07T10:50:20.005Z,23.84
2023-11-07T10:52:50.804Z,24.01
2023-11-07T10:55:21.133Z,24.08
2023-11-07T10:58:00.800Z,24.23
2023-11-07T11:00:34.826Z,24.35
2023-11-07T11:03:13.551Z,24.41
2023-11-07T11:05:47.277Z,24.39
2023-11-07T11:08:22.811Z,24.52
2023-11-07T11:10:55.117Z,24.52
2023-11-07T11:13:27.417Z,24.57
2023-11-07T11:15:59.599Z,24.56
2023-11-07T11:18:49.182Z,24.80
2023-11-07T11:21:27.756Z,25.11
2023-11-07T11:24:40.849Z,25.20
2023-11-07T11:27:23.349Z,25.21
2023-11-07T11:29:54.240Z,25.27
2023-11-07T11:32:36.915Z,25.11
2023-11-07T11:35:20.119Z,25.25
2023-11-07T11:38:16.995Z,25.22
2023-11-07T11:41:04.419Z,25.25
2023-11-07T11:43:59.537Z,25.12
2023-11-07T11:46:40.617Z,25.22
2023-11-07T11:49:13.858Z,25.08
2023-11-07T11:51:46.511Z,25.07
2023-11-07T11:54:21.174Z,25.21
2023-11-07T11:56:56.407Z,25.31
2023-11-07T11:59:28.599Z,25.20
2023-11-07T12:02:06.949Z,25.27
2023-11-07T12:04:51.738Z,25.55
2023-11-07T12:07:26.455Z,25.51
2023-11-07T12:10:00.523Z,25.48
2023-11-07T12:12:32.824Z,25.59
2023-11-07T12:15:05.968Z,25.72
2023-11-07T12:17:50.696Z,25.82
2023-11-07T12:20:22.411Z,25.75
2023-11-07T12:22:54.582Z,25.63
2023-11-07T12:25:31.115Z,25.61
2023-11-07T12:28:09.149Z,25.48
2023-11-07T12:30:40.392Z,25.45
2023-11-07T12:33:12.285Z,25.42
2023-11-07T12:35:42.740Z,25.25
2023-11-07T12:38:16.478Z,25.25
2023-11-07T12:40:46.824Z,25.22
2023-11-07T12:43:19.125Z,25.22
2023-11-07T12:45:51.413Z,25.32
2023-11-07T12:48:31.008Z,25.10
2023-11-07T12:51:01.587Z,25.15
2023-11-07T12:53:33.244Z,25.20
2023-11-07T12:56:03.884Z,24.98
2023-11-07T12:58:34.200Z,24.90
2023-11-07T13:01:10.017Z,24.86
2023-11-07T13:03:41.255Z,24.90
2023-11-07T13:06:15.069Z,24.80
2023-11-07T13:08:49.935Z,24.94
2023-11-07T13:11:28.570Z,25.21
2023-11-07T13:13:59.665Z,25.22
2023-11-07T13:16:29.886Z,25.41
2023-11-07T13:19:00.088Z,25.34
2023-11-07T13:21:30.385Z,25.48
2023-11-07T13:24:00.603Z,25.49
2023-11-07T13:26:31.642Z,25.71
2023-11-07T13:29:02.320Z,25.65
2023-11-07T13:31:33.217Z,25.96
2023-11-07T13:34:03.258Z,25.95
2023-11-07T13:36:33.605Z,25.89
2023-11-07T13:39:06.427Z,25.92
2023-11-07T13:41:37.356Z,25.90
2023-11-07T13:44:12.798Z,25.97
2023-11-07T13:46:43.593Z,25.83
2023-11-07T13:49:14.583Z,25.99
2023-11-07T13:51:47.169Z,25.78
2023-11-07T13:54:17.932Z,25.99
2023-11-07T13:56:48.655Z,26.16
2023-11-07T13:59:20.694Z,26.20
2023-11-07T14:01:51.319Z,26.14
2023-11-07T14:04:21.469Z,26.09
2023-11-07T14:06:52.735Z,26.14
2023-11-07T14:09:26.106Z,26.22
2023-11-07T14:11:56.668Z,26.22
2023-11-07T14:14:27.575Z,26.30
2023-11-07T14:16:57.744Z,26.16
2023-11-07T14:19:28.995Z,26.29
2023-11-07T14:21:59.407Z,26.41
2023-11-07T14:24:30.443Z,26.46
2023-11-07T14:27:01.295Z,26.36
2023-11-07T14:29:47.532Z,26.22
2023-11-07T14:32:23.197Z,26.29
2023-11-07T14:34:54.090Z,26.30
2023-11-07T14:37:25.845Z,26.19
2023-11-07T14:39:57.618Z,26.17
2023-11-07T14:42:30.434Z,26.34
2023-11-07T14:45:01.418Z,26.54
2023-11-07T14:47:31.738Z,26.46
2023-11-07T14:50:03.386Z,26.32
2023-11-07T14:52:34.423Z,26.37
2023-11-07T14:55:06.805Z,26.17
2023-11-07T14:57:37.465Z,26.33
2023-11-07T15:00:11.911Z,26.37
2023-11-07T15:02:43.278Z,26.32
2023-11-07T15:05:13.911Z,26.26
2023-11-07T15:07:44.643Z,26.29
2023-11-07T15:10:15.576Z,26.37
2023-11-07T15:12:46.134Z,26.39
2023-11-07T15:15:17.720Z,26.27
2023-11-07T15:17:51.906Z,26.29
2023-11-07T15:20:22.655Z,26.16
2023-11-07T15:22:52.790Z,26.16
2023-11-07T15:25:27.250Z,26.06
2023-11-07T15:27:58.008Z,26.19
2023-11-07T15:30:33.484Z,26.40
2023-11-07T15:33:06.290Z,26.34
2023-11-07T15:35:39.135Z,26.27
2023-11-07T15:38:09.712Z,26.24
2023-11-07T15:40:42.043Z,26.34
2023-11-07T15:43:13.723Z,26.26
2023-11-07T15:45:46.146Z,26.22
2023-11-07T15:48:16.845Z,26.27
2023-11-07T15:50:47.684Z,26.22
2023-11-07T15:53:18.328Z,26.20
2023-11-07T15:55:48.489Z,26.13
2023-11-07T15:58:19.483Z,26.22
2023-11-07T16:00:53.006Z,26.16
2023-11-07T16:03:24.073Z,26.09
2023-11-07T16:05:54.740Z,26.05
2023-11-07T16:08:26.985Z,26.02
2023-11-07T16:10:57.766Z,26.03
2023-11-07T16:13:29.887Z,25.96
2023-11-07T16:16:02.556Z,26.05
2023-11-07T16:18:34.082Z,25.99
2023-11-07T16:21:09.687Z,25.92
2023-11-07T16:23:40.155Z,26.27
2023-11-07T16:29:02.231Z,25.88
2023-11-07T16:31:33.633Z,25.89
2023-11-07T16:34:03.969Z,25.86
2023-11-07T16:36:34.303Z,25.93
2023-11-07T16:39:05.747Z,25.82
2023-11-07T16:41:37.813Z,25.86
2023-11-07T16:44:08.931Z,25.68
2023-11-07T16:46:39.677Z,25.53
2023-11-07T16:49:09.939Z,25.46
2023-11-07T16:51:40.294Z,25.48
2023-11-07T16:54:11.261Z,25.52
2023-11-07T16:56:42.559Z,25.45
2023-11-07T16:59:14.134Z,25.43
2023-11-07T17:01:44.750Z,25.34
2023-11-07T17:04:15.044Z,25.51
2023-11-07T17:06:46.523Z,25.63
2023-11-07T17:09:18.562Z,25.45
2023-11-07T17:11:55.179Z,25.24
2023-11-07T17:14:25.558Z,25.38
2023-11-07T17:16:57.019Z,25.43
2023-11-07T17:19:28.007Z,25.42
2023-11-07T17:21:59.875Z,25.41
2023-11-07T17:24:30.450Z,25.27
2023-11-07T17:27:02.183Z,25.37
2023-11-07T17:29:34.153Z,25.32
2023-11-07T17:32:06.278Z,25.32
2023-11-07T17:34:37.398Z,25.25
2023-11-07T17:37:09.203Z,25.18
2023-11-07T17:39:40.570Z,25.18
2023-11-07T17:42:12.553Z,25.15
2023-11-07T17:44:44.978Z,25.20
2023-11-07T17:47:17.820Z,25.08
2023-11-07T17:49:49.998Z,25.10
2023-11-07T17:52:22.342Z,25.00
2023-11-07T17:54:54.909Z,25.01
2023-11-07T17:57:26.737Z,25.00
2023-11-07T17:59:57.680Z,24.97
2023-11-07T18:02:31.099Z,24.98
2023-11-07T18:05:01.297Z,24.88
2023-11-07T18:07:31.786Z,24.84
2023-11-07T18:10:02.345Z,24.71
2023-11-07T18:12:32.537Z,24.74
2023-11-07T18:15:03.228Z,24.84
2023-11-07T18:17:34.814Z,24.90
2023-11-07T18:20:09.385Z,24.83
2023-11-07T18:22:43.283Z,24.77
2023-11-07T18:25:15.375Z,24.71
2023-11-07T18:27:46.935Z,24.64
2023-11-07T18:30:17.924Z,24.66
2023-11-07T18:32:48.806Z,24.66
2023-11-07T18:35:19.043Z,24.61
2023-11-07T18:37:49.287Z,24.69
2023-11-07T18:40:20.720Z,24.67
2023-11-07T18:42:51.981Z,24.52
2023-11-07T18:45:22.589Z,24.37
2023-11-07T18:47:54.098Z,24.39
2023-11-07T18:50:24.585Z,24.49
2023-11-07T18:52:55.920Z,24.46
2023-11-07T18:55:27.098Z,24.36
2023-11-07T18:57:58.490Z,24.49
2023-11-07T19:00:29.349Z,24.47
2023-11-07T19:02:59.612Z,24.36
2023-11-07T19:05:30.176Z,24.36
2023-11-07T19:08:00.564Z,24.37
2023-11-07T19:10:31.027Z,24.30
2023-11-07T19:13:01.207Z,24.23
2023-11-07T19:15:31.824Z,24.25
2023-11-07T19:18:02.587Z,24.13
2023-11-07T19:20:33.769Z,24.12
2023-11-07T19:23:04.885Z,23.94
2023-11-07T19:25:35.802Z,23.99
2023-11-07T19:28:06.076Z,23.98
2023-11-07T19:30:36.252Z,23.95
2023-11-07T19:33:06.928Z,24.01
2023-11-07T19:35:38.353Z,23.84
2023-11-07T19:38:08.573Z,23.79
2023-11-07T19:40:41.714Z,23.72
2023-11-07T19:43:12.464Z,23.65
2023-11-07T19:45:45.799Z,23.67
2023-11-07T19:48:17.049Z,23.61
2023-11-07T19:50:49.286Z,23.51
2023-11-07T19:53:19.540Z,23.59
2023-11-07T19:55:50.194Z,23.44
2023-11-07T19:58:21.607Z,23.37
2023-11-07T20:00:55.277Z,23.31
2023-11-07T20:03:31.845Z,23.33
2023-11-07T20:06:02.115Z,23.23
2023-11-07T20:08:32.983Z,23.24
2023-11-07T20:11:06.295Z,23.17
2023-11-07T20:13:37.416Z,23.07
2023-11-07T20:16:10.895Z,22.96
2023-11-07T20:18:42.163Z,22.97
2023-11-07T20:21:12.999Z,22.90
2023-11-07T20:23:44.858Z,22.84
2023-11-07T20:26:15.053Z,22.84
2023-11-07T20:28:46.606Z,22.72
2023-11-07T20:31:22.932Z,22.84
2023-11-07T20:33:54.026Z,22.64
2023-11-07T20:36:25.231Z,22.55
2023-11-07T20:38:56.706Z,22.55
2023-11-07T20:41:27.042Z,22.42
2023-11-07T20:43:57.740Z,22.33
2023-11-07T20:46:33.801Z,22.23
2023-11-07T20:49:09.304Z,22.23
2023-11-07T20:51:40.583Z,22.16
2023-11-07T20:54:15.204Z,22.12
2023-11-07T20:56:46.786Z,22.02
2023-11-07T20:59:17.269Z,22.04
2023-11-07T21:01:47.916Z,21.94
2023-11-07T21:04:18.462Z,21.84
2023-11-07T21:06:48.693Z,21.77
2023-11-07T21:09:20.108Z,21.73
2023-11-07T21:11:52.492Z,21.70
2023-11-07T21:14:23.684Z,21.60
2023-11-07T21:16:53.852Z,21.60
2023-11-07T21:19:27.146Z,21.51
2023-11-07T21:22:02.276Z,21.44
2023-11-07T21:24:34.133Z,21.38
2023-11-07T21:27:06.034Z,21.33
2023-11-07T21:29:36.663Z,21.27
2023-11-07T21:32:08.120Z,21.22
2023-11-07T21:34:39.865Z,21.16
2023-11-07T21:37:10.583Z,21.14
2023-11-07T21:39:42.477Z,21.09
2023-11-07T21:42:12.768Z,21.06
2023-11-07T21:44:44.988Z,20.99
2023-11-07T21:47:19.240Z,21.00
2023-11-07T21:49:49.875Z,20.97
2023-11-07T21:52:20.532Z,20.95
2023-11-07T21:54:51.473Z,20.95
2023-11-07T21:57:22.660Z,20.92
2023-11-07T21:59:53.716Z,20.87
2023-11-07T22:02:24.658Z,20.85
2023-11-07T22:04:56.301Z,20.83
2023-11-07T22:07:27.830Z,20.85
2023-11-07T22:09:59.316Z,20.82
2023-11-07T22:12:29.779Z,20.80
2023-11-07T22:15:00.164Z,20.79
2023-11-07T22:17:31.412Z,20.77
2023-11-07T22:20:01.798Z,20.75
2023-11-07T22:22:32.787Z,20.79
2023-11-07T22:25:03.739Z,20.72
2023-11-07T22:27:37.527Z,20.77
2023-11-07T22:30:12.352Z,20.77
2023-11-07T22:32:47.580Z,20.72
2023-11-07T22:35:18.942Z,20.79
2023-11-07T22:37:49.525Z,20.75
2023-11-07T22:40:20.577Z,20.73
2023-11-07T22:42:51.762Z,20.69
2023-11-07T22:45:22.094Z,20.71
2023-11-07T22:47:52.663Z,20.68
2023-11-07T22:50:22.865Z,20.69
2023-11-07T22:52:54.036Z,20.71
2023-11-07T22:55:24.781Z,20.68
2023-11-07T22:57:54.928Z,20.69
2023-11-07T23:00:33.029Z,20.65
2023-11-07T23:03:06.739Z,20.66
2023-11-07T23:05:39.479Z,20.64
2023-11-07T23:08:12.968Z,20.62
2023-11-07T23:10:45.104Z,20.62
2023-11-07T23:13:17.936Z,20.62
2023-11-07T23:15:52.883Z,20.59
2023-11-07T23:18:25.037Z,20.59
2023-11-07T23:20:55.649Z,20.56
2023-11-07T23:23:28.010Z,20.55
2023-11-07T23:25:59.234Z,20.53
2023-11-07T23:28:29.932Z,20.53
2023-11-07T23:31:02.030Z,20.55
2023-11-07T23:33:32.906Z,20.52
2023-11-07T23:36:03.863Z,20.52
2023-11-07T23:38:35.219Z,20.52
2023-11-07T23:41:06.609Z,20.48
2023-11-07T23:43:37.175Z,20.49
2023-11-07T23:46:07.437Z,20.48
2023-11-07T23:48:37.824Z,20.46
2023-11-07T23:51:14.488Z,20.46
2023-11-07T23:53:44.429Z,20.44
2023-11-07T23:56:15.327Z,20.44
2023-11-07T23:58:46.263Z,20.42
